sensor_id;sensor_type;location;lat;lon;timestamp;P1;durP1;ratioP1;P2;durP2;ratioP2
15449;SDS011;7826;49.784;9.934;2022-10-30T00:00:21;11.37;;;5.87;;
15449;SDS011;7826;49.784;9.934;2022-10-30T00:02:48;10.73;;;5.93;;
15449;SDS011;7826;49.784;9.934;2022-10-30T00:05:14;7.73;;;4.97;;
15449;SDS011;7826;49.784;9.934;2022-10-30T00:07:41;14.70;;;6.13;;
15449;SDS011;7826;49.784;9.934;2022-10-30T00:10:08;9.40;;;5.60;;
15449;SDS011;7826;49.784;9.934;2022-10-30T00:12:34;6.90;;;5.30;;
15449;SDS011;7826;49.784;9.934;2022-10-30T00:15:01;8.67;;;5.93;;
15449;SDS011;7826;49.784;9.934;2022-10-30T00:17:27;8.87;;;5.67;;
15449;SDS011;7826;49.784;9.934;2022-10-30T00:19:54;12.70;;;6.17;;
15449;SDS011;7826;49.784;9.934;2022-10-30T00:22:20;8.57;;;4.97;;
15449;SDS011;7826;49.784;9.934;2022-10-30T00:24:46;9.83;;;5.77;;
15449;SDS011;7826;49.784;9.934;2022-10-30T00:27:12;15.03;;;5.73;;
15449;SDS011;7826;49.784;9.934;2022-10-30T00:29:39;11.10;;;5.33;;
15449;SDS011;7826;49.784;9.934;2022-10-30T00:32:06;10.77;;;5.57;;
15449;SDS011;7826;49.784;9.934;2022-10-30T00:34:32;8.30;;;5.13;;
15449;SDS011;7826;49.784;9.934;2022-10-30T00:36:59;5.67;;;4.57;;
15449;SDS011;7826;49.784;9.934;2022-10-30T00:39:25;7.93;;;5.13;;
15449;SDS011;7826;49.784;9.934;2022-10-30T00:41:51;8.80;;;5.10;;
15449;SDS011;7826;49.784;9.934;2022-10-30T00:50:05;10.43;;;4.97;;
15449;SDS011;7826;49.784;9.934;2022-10-30T00:52:33;12.47;;;5.07;;
15449;SDS011;7826;49.784;9.934;2022-10-30T00:55:05;10.03;;;5.30;;
15449;SDS011;7826;49.784;9.934;2022-10-30T00:57:38;7.83;;;5.07;;
15449;SDS011;7826;49.784;9.934;2022-10-30T01:00:05;6.63;;;4.97;;
15449;SDS011;7826;49.784;9.934;2022-10-30T01:02:32;10.40;;;5.30;;
15449;SDS011;7826;49.784;9.934;2022-10-30T01:04:59;10.67;;;5.33;;
15449;SDS011;7826;49.784;9.934;2022-10-30T01:07:27;10.77;;;6.23;;
15449;SDS011;7826;49.784;9.934;2022-10-30T01:09:53;11.57;;;6.00;;
15449;SDS011;7826;49.784;9.934;2022-10-30T01:12:19;8.67;;;5.60;;
15449;SDS011;7826;49.784;9.934;2022-10-30T01:14:48;9.07;;;5.60;;
15449;SDS011;7826;49.784;9.934;2022-10-30T01:17:29;8.57;;;5.30;;
15449;SDS011;7826;49.784;9.934;2022-10-30T01:20:05;8.87;;;5.10;;
15449;SDS011;7826;49.784;9.934;2022-10-30T01:22:50;10.13;;;5.67;;
15449;SDS011;7826;49.784;9.934;2022-10-30T01:25:35;18.63;;;5.97;;
15449;SDS011;7826;49.784;9.934;2022-10-30T01:31:50;35.13;;;5.83;;
15449;SDS011;7826;49.784;9.934;2022-10-30T01:37:41;7.80;;;4.97;;
15449;SDS011;7826;49.784;9.934;2022-10-30T01:40:16;8.53;;;4.00;;
15449;SDS011;7826;49.784;9.934;2022-10-30T01:42:44;6.23;;;4.20;;
15449;SDS011;7826;49.784;9.934;2022-10-30T01:58:49;6.03;;;5.10;;
15449;SDS011;7826;49.784;9.934;2022-10-30T02:01:22;9.20;;;4.60;;
15449;SDS011;7826;49.784;9.934;2022-10-30T02:03:49;5.40;;;4.47;;
15449;SDS011;7826;49.784;9.934;2022-10-30T02:06:16;5.90;;;4.40;;
15449;SDS011;7826;49.784;9.934;2022-10-30T02:08:43;6.00;;;4.00;;
15449;SDS011;7826;49.784;9.934;2022-10-30T02:11:09;6.50;;;3.77;;
15449;SDS011;7826;49.784;9.934;2022-10-30T02:13:36;7.50;;;4.23;;
15449;SDS011;7826;49.784;9.934;2022-10-30T02:16:03;5.43;;;4.30;;
15449;SDS011;7826;49.784;9.934;2022-10-30T02:18:30;6.10;;;4.33;;
15449;SDS011;7826;49.784;9.934;2022-10-30T02:20:57;7.93;;;4.33;;
15449;SDS011;7826;49.784;9.934;2022-10-30T02:23:23;8.27;;;5.00;;
15449;SDS011;7826;49.784;9.934;2022-10-30T02:25:50;7.53;;;5.00;;
15449;SDS011;7826;49.784;9.934;2022-10-30T02:28:16;8.37;;;5.07;;
15449;SDS011;7826;49.784;9.934;2022-10-30T02:30:42;6.93;;;4.20;;
15449;SDS011;7826;49.784;9.934;2022-10-30T02:33:09;8.37;;;4.77;;
15449;SDS011;7826;49.784;9.934;2022-10-30T02:35:35;8.27;;;5.17;;
15449;SDS011;7826;49.784;9.934;2022-10-30T02:38:02;10.30;;;4.97;;
15449;SDS011;7826;49.784;9.934;2022-10-30T02:40:28;8.40;;;4.50;;
15449;SDS011;7826;49.784;9.934;2022-10-30T02:42:55;8.70;;;5.10;;
15449;SDS011;7826;49.784;9.934;2022-10-30T02:45:21;6.97;;;4.83;;
15449;SDS011;7826;49.784;9.934;2022-10-30T02:47:48;20.73;;;5.20;;
15449;SDS011;7826;49.784;9.934;2022-10-30T02:50:14;9.40;;;4.50;;
15449;SDS011;7826;49.784;9.934;2022-10-30T02:52:40;8.47;;;4.83;;
15449;SDS011;7826;49.784;9.934;2022-10-30T02:55:07;6.57;;;4.50;;
15449;SDS011;7826;49.784;9.934;2022-10-30T02:57:33;6.60;;;4.70;;
15449;SDS011;7826;49.784;9.934;2022-10-30T02:59:59;5.60;;;4.60;;
15449;SDS011;7826;49.784;9.934;2022-10-30T03:02:26;6.33;;;4.80;;
15449;SDS011;7826;49.784;9.934;2022-10-30T03:04:52;23.87;;;5.17;;
15449;SDS011;7826;49.784;9.934;2022-10-30T03:07:18;5.87;;;4.30;;
15449;SDS011;7826;49.784;9.934;2022-10-30T03:09:44;5.60;;;4.57;;
15449;SDS011;7826;49.784;9.934;2022-10-30T03:12:10;6.37;;;4.73;;
15449;SDS011;7826;49.784;9.934;2022-10-30T03:14:36;8.87;;;4.40;;
15449;SDS011;7826;49.784;9.934;2022-10-30T03:17:03;8.60;;;5.07;;
15449;SDS011;7826;49.784;9.934;2022-10-30T03:19:29;5.60;;;3.70;;
15449;SDS011;7826;49.784;9.934;2022-10-30T03:21:55;5.10;;;4.53;;
15449;SDS011;7826;49.784;9.934;2022-10-30T03:24:21;5.60;;;4.00;;
15449;SDS011;7826;49.784;9.934;2022-10-30T03:26:48;6.93;;;4.30;;
15449;SDS011;7826;49.784;9.934;2022-10-30T03:29:14;12.30;;;4.63;;
15449;SDS011;7826;49.784;9.934;2022-10-30T03:31:40;4.63;;;4.07;;
15449;SDS011;7826;49.784;9.934;2022-10-30T03:34:07;6.13;;;4.30;;
15449;SDS011;7826;49.784;9.934;2022-10-30T03:36:33;5.03;;;3.90;;
15449;SDS011;7826;49.784;9.934;2022-10-30T03:39:00;10.03;;;4.37;;
15449;SDS011;7826;49.784;9.934;2022-10-30T03:41:26;7.57;;;4.20;;
15449;SDS011;7826;49.784;9.934;2022-10-30T03:43:52;7.03;;;5.10;;
15449;SDS011;7826;49.784;9.934;2022-10-30T03:46:18;16.80;;;4.20;;
15449;SDS011;7826;49.784;9.934;2022-10-30T03:48:47;6.23;;;4.90;;
15449;SDS011;7826;49.784;9.934;2022-10-30T03:51:13;5.47;;;4.90;;
15449;SDS011;7826;49.784;9.934;2022-10-30T03:53:40;6.57;;;4.20;;
15449;SDS011;7826;49.784;9.934;2022-10-30T03:56:06;12.03;;;4.53;;
15449;SDS011;7826;49.784;9.934;2022-10-30T03:58:34;7.20;;;4.83;;
15449;SDS011;7826;49.784;9.934;2022-10-30T04:01:04;6.73;;;4.30;;
15449;SDS011;7826;49.784;9.934;2022-10-30T04:03:31;5.30;;;4.10;;
15449;SDS011;7826;49.784;9.934;2022-10-30T04:05:58;6.73;;;4.43;;
15449;SDS011;7826;49.784;9.934;2022-10-30T04:08:25;7.40;;;4.03;;
15449;SDS011;7826;49.784;9.934;2022-10-30T04:10:51;8.53;;;4.50;;
15449;SDS011;7826;49.784;9.934;2022-10-30T04:13:18;7.73;;;3.87;;
15449;SDS011;7826;49.784;9.934;2022-10-30T04:15:47;6.03;;;4.30;;
15449;SDS011;7826;49.784;9.934;2022-10-30T04:18:14;7.87;;;4.10;;
15449;SDS011;7826;49.784;9.934;2022-10-30T04:20:42;6.70;;;3.63;;
15449;SDS011;7826;49.784;9.934;2022-10-30T04:23:10;5.57;;;4.03;;
15449;SDS011;7826;49.784;9.934;2022-10-30T04:25:40;5.60;;;4.10;;
15449;SDS011;7826;49.784;9.934;2022-10-30T04:28:06;5.93;;;3.93;;
15449;SDS011;7826;49.784;9.934;2022-10-30T04:30:33;9.20;;;4.03;;
15449;SDS011;7826;49.784;9.934;2022-10-30T04:33:02;6.43;;;4.00;;
15449;SDS011;7826;49.784;9.934;2022-10-30T04:35:32;4.93;;;3.30;;
15449;SDS011;7826;49.784;9.934;2022-10-30T04:38:03;3.80;;;3.37;;
15449;SDS011;7826;49.784;9.934;2022-10-30T04:40:32;4.87;;;3.63;;
15449;SDS011;7826;49.784;9.934;2022-10-30T04:43:01;4.77;;;3.33;;
15449;SDS011;7826;49.784;9.934;2022-10-30T04:45:28;9.10;;;3.70;;
15449;SDS011;7826;49.784;9.934;2022-10-30T04:48:04;10.40;;;3.93;;
15449;SDS011;7826;49.784;9.934;2022-10-30T04:50:50;9.10;;;3.40;;
15449;SDS011;7826;49.784;9.934;2022-10-30T04:53:17;6.97;;;3.83;;
15449;SDS011;7826;49.784;9.934;2022-10-30T04:55:44;5.23;;;3.70;;
15449;SDS011;7826;49.784;9.934;2022-10-30T04:58:10;4.60;;;3.90;;
15449;SDS011;7826;49.784;9.934;2022-10-30T05:00:37;5.97;;;4.07;;
15449;SDS011;7826;49.784;9.934;2022-10-30T05:03:04;5.00;;;3.77;;
15449;SDS011;7826;49.784;9.934;2022-10-30T05:05:30;4.93;;;3.67;;
15449;SDS011;7826;49.784;9.934;2022-10-30T05:07:56;4.67;;;3.83;;
15449;SDS011;7826;49.784;9.934;2022-10-30T05:10:23;4.97;;;3.67;;
15449;SDS011;7826;49.784;9.934;2022-10-30T05:12:50;5.27;;;4.07;;
15449;SDS011;7826;49.784;9.934;2022-10-30T05:15:18;3.93;;;3.53;;
15449;SDS011;7826;49.784;9.934;2022-10-30T05:17:44;5.17;;;3.90;;
15449;SDS011;7826;49.784;9.934;2022-10-30T05:20:11;5.17;;;4.13;;
15449;SDS011;7826;49.784;9.934;2022-10-30T05:22:37;4.97;;;4.13;;
15449;SDS011;7826;49.784;9.934;2022-10-30T05:25:03;11.53;;;4.33;;
15449;SDS011;7826;49.784;9.934;2022-10-30T05:27:30;6.17;;;4.27;;
15449;SDS011;7826;49.784;9.934;2022-10-30T05:29:56;5.87;;;3.23;;
15449;SDS011;7826;49.784;9.934;2022-10-30T05:32:22;6.33;;;3.83;;
15449;SDS011;7826;49.784;9.934;2022-10-30T05:34:49;4.57;;;3.70;;
15449;SDS011;7826;49.784;9.934;2022-10-30T05:37:15;5.37;;;4.17;;
15449;SDS011;7826;49.784;9.934;2022-10-30T05:39:41;5.40;;;3.80;;
15449;SDS011;7826;49.784;9.934;2022-10-30T05:42:08;5.40;;;4.13;;
15449;SDS011;7826;49.784;9.934;2022-10-30T05:44:34;16.07;;;4.23;;
15449;SDS011;7826;49.784;9.934;2022-10-30T05:47:00;6.70;;;4.03;;
15449;SDS011;7826;49.784;9.934;2022-10-30T05:49:26;8.00;;;4.37;;
15449;SDS011;7826;49.784;9.934;2022-10-30T05:51:52;4.50;;;3.57;;
15449;SDS011;7826;49.784;9.934;2022-10-30T05:54:19;5.33;;;3.60;;
15449;SDS011;7826;49.784;9.934;2022-10-30T05:56:45;4.97;;;3.90;;
15449;SDS011;7826;49.784;9.934;2022-10-30T05:59:11;5.03;;;3.97;;
15449;SDS011;7826;49.784;9.934;2022-10-30T06:01:37;5.17;;;4.17;;
15449;SDS011;7826;49.784;9.934;2022-10-30T06:04:04;11.27;;;4.47;;
15449;SDS011;7826;49.784;9.934;2022-10-30T06:06:31;6.30;;;4.27;;
15449;SDS011;7826;49.784;9.934;2022-10-30T06:08:57;5.10;;;3.87;;
15449;SDS011;7826;49.784;9.934;2022-10-30T06:11:23;5.07;;;3.90;;
15449;SDS011;7826;49.784;9.934;2022-10-30T06:13:50;3.90;;;3.60;;
15449;SDS011;7826;49.784;9.934;2022-10-30T06:16:16;5.00;;;3.70;;
15449;SDS011;7826;49.784;9.934;2022-10-30T06:18:42;4.67;;;3.60;;
15449;SDS011;7826;49.784;9.934;2022-10-30T06:21:08;7.23;;;3.33;;
15449;SDS011;7826;49.784;9.934;2022-10-30T06:23:35;3.67;;;3.37;;
15449;SDS011;7826;49.784;9.934;2022-10-30T06:26:01;5.97;;;3.87;;
15449;SDS011;7826;49.784;9.934;2022-10-30T06:28:27;4.40;;;3.67;;
15449;SDS011;7826;49.784;9.934;2022-10-30T06:30:53;4.97;;;4.43;;
15449;SDS011;7826;49.784;9.934;2022-10-30T06:33:20;4.53;;;3.73;;
15449;SDS011;7826;49.784;9.934;2022-10-30T06:35:47;4.60;;;3.90;;
15449;SDS011;7826;49.784;9.934;2022-10-30T06:38:14;4.00;;;3.30;;
15449;SDS011;7826;49.784;9.934;2022-10-30T06:40:41;7.37;;;3.93;;
15449;SDS011;7826;49.784;9.934;2022-10-30T06:43:08;5.43;;;3.67;;
15449;SDS011;7826;49.784;9.934;2022-10-30T06:45:34;4.87;;;3.47;;
15449;SDS011;7826;49.784;9.934;2022-10-30T06:48:00;7.90;;;3.57;;
15449;SDS011;7826;49.784;9.934;2022-10-30T06:50:27;4.90;;;4.00;;
15449;SDS011;7826;49.784;9.934;2022-10-30T06:52:53;5.83;;;3.33;;
15449;SDS011;7826;49.784;9.934;2022-10-30T06:55:20;6.20;;;3.70;;
15449;SDS011;7826;49.784;9.934;2022-10-30T06:57:52;4.60;;;3.93;;
15449;SDS011;7826;49.784;9.934;2022-10-30T07:00:19;4.80;;;3.67;;
15449;SDS011;7826;49.784;9.934;2022-10-30T07:02:53;4.67;;;3.63;;
15449;SDS011;7826;49.784;9.934;2022-10-30T07:05:21;5.23;;;4.03;;
15449;SDS011;7826;49.784;9.934;2022-10-30T07:07:47;4.03;;;3.60;;
15449;SDS011;7826;49.784;9.934;2022-10-30T07:10:13;9.07;;;3.90;;
15449;SDS011;7826;49.784;9.934;2022-10-30T07:12:40;4.27;;;3.43;;
15449;SDS011;7826;49.784;9.934;2022-10-30T07:15:06;8.23;;;3.70;;
15449;SDS011;7826;49.784;9.934;2022-10-30T07:17:32;3.57;;;3.27;;
15449;SDS011;7826;49.784;9.934;2022-10-30T07:19:59;3.90;;;3.47;;
15449;SDS011;7826;49.784;9.934;2022-10-30T07:22:25;3.83;;;3.50;;
15449;SDS011;7826;49.784;9.934;2022-10-30T07:24:51;3.90;;;3.60;;
15449;SDS011;7826;49.784;9.934;2022-10-30T07:27:17;9.60;;;3.53;;
15449;SDS011;7826;49.784;9.934;2022-10-30T07:29:43;4.30;;;3.60;;
15449;SDS011;7826;49.784;9.934;2022-10-30T07:32:11;4.13;;;3.30;;
15449;SDS011;7826;49.784;9.934;2022-10-30T07:34:37;18.80;;;3.37;;
15449;SDS011;7826;49.784;9.934;2022-10-30T07:37:04;5.37;;;3.93;;
15449;SDS011;7826;49.784;9.934;2022-10-30T07:39:30;5.30;;;3.67;;
15449;SDS011;7826;49.784;9.934;2022-10-30T07:41:57;3.80;;;3.50;;
15449;SDS011;7826;49.784;9.934;2022-10-30T07:44:23;5.10;;;3.63;;
15449;SDS011;7826;49.784;9.934;2022-10-30T07:46:49;4.07;;;3.63;;
15449;SDS011;7826;49.784;9.934;2022-10-30T07:49:15;4.80;;;4.13;;
15449;SDS011;7826;49.784;9.934;2022-10-30T07:51:41;4.63;;;3.80;;
15449;SDS011;7826;49.784;9.934;2022-10-30T07:54:08;4.93;;;3.83;;
15449;SDS011;7826;49.784;9.934;2022-10-30T07:56:34;4.00;;;3.40;;
15449;SDS011;7826;49.784;9.934;2022-10-30T07:59:00;4.17;;;3.30;;
15449;SDS011;7826;49.784;9.934;2022-10-30T08:01:26;7.23;;;3.70;;
15449;SDS011;7826;49.784;9.934;2022-10-30T08:03:53;4.10;;;3.23;;
15449;SDS011;7826;49.784;9.934;2022-10-30T08:06:19;3.83;;;3.13;;
15449;SDS011;7826;49.784;9.934;2022-10-30T08:08:45;5.20;;;3.50;;
15449;SDS011;7826;49.784;9.934;2022-10-30T08:11:11;8.17;;;3.03;;
15449;SDS011;7826;49.784;9.934;2022-10-30T08:13:38;9.07;;;3.23;;
15449;SDS011;7826;49.784;9.934;2022-10-30T08:16:04;4.83;;;3.00;;
15449;SDS011;7826;49.784;9.934;2022-10-30T08:18:30;8.07;;;3.23;;
15449;SDS011;7826;49.784;9.934;2022-10-30T08:20:57;3.87;;;3.07;;
15449;SDS011;7826;49.784;9.934;2022-10-30T08:23:23;15.40;;;3.40;;
15449;SDS011;7826;49.784;9.934;2022-10-30T08:25:49;3.83;;;3.53;;
15449;SDS011;7826;49.784;9.934;2022-10-30T08:28:15;3.77;;;3.40;;
15449;SDS011;7826;49.784;9.934;2022-10-30T08:30:42;6.83;;;3.77;;
15449;SDS011;7826;49.784;9.934;2022-10-30T08:33:11;3.90;;;3.50;;
15449;SDS011;7826;49.784;9.934;2022-10-30T08:35:51;5.17;;;4.30;;
15449;SDS011;7826;49.784;9.934;2022-10-30T08:38:21;7.63;;;4.30;;
15449;SDS011;7826;49.784;9.934;2022-10-30T08:40:48;6.50;;;3.80;;
15449;SDS011;7826;49.784;9.934;2022-10-30T08:43:14;5.40;;;4.30;;
15449;SDS011;7826;49.784;9.934;2022-10-30T08:45:41;6.53;;;4.50;;
15449;SDS011;7826;49.784;9.934;2022-10-30T08:48:08;4.33;;;3.60;;
15449;SDS011;7826;49.784;9.934;2022-10-30T08:50:36;9.33;;;3.87;;
15449;SDS011;7826;49.784;9.934;2022-10-30T08:53:05;7.97;;;3.80;;
15449;SDS011;7826;49.784;9.934;2022-10-30T08:55:33;4.40;;;4.00;;
15449;SDS011;7826;49.784;9.934;2022-10-30T08:58:00;16.10;;;3.20;;
15449;SDS011;7826;49.784;9.934;2022-10-30T09:00:26;5.77;;;3.10;;
15449;SDS011;7826;49.784;9.934;2022-10-30T09:02:52;3.83;;;3.23;;
15449;SDS011;7826;49.784;9.934;2022-10-30T09:05:19;15.30;;;3.53;;
15449;SDS011;7826;49.784;9.934;2022-10-30T09:07:46;5.67;;;3.10;;
15449;SDS011;7826;49.784;9.934;2022-10-30T09:10:12;7.10;;;3.63;;
15449;SDS011;7826;49.784;9.934;2022-10-30T09:12:39;7.50;;;3.47;;
15449;SDS011;7826;49.784;9.934;2022-10-30T09:15:06;3.90;;;3.43;;
15449;SDS011;7826;49.784;9.934;2022-10-30T09:17:32;4.73;;;3.30;;
15449;SDS011;7826;49.784;9.934;2022-10-30T09:19:59;5.07;;;3.67;;
15449;SDS011;7826;49.784;9.934;2022-10-30T09:22:25;4.30;;;3.50;;
15449;SDS011;7826;49.784;9.934;2022-10-30T09:24:51;5.27;;;4.03;;
15449;SDS011;7826;49.784;9.934;2022-10-30T09:27:18;3.77;;;3.20;;
15449;SDS011;7826;49.784;9.934;2022-10-30T09:29:47;4.90;;;3.90;;
15449;SDS011;7826;49.784;9.934;2022-10-30T09:32:13;4.90;;;3.57;;
15449;SDS011;7826;49.784;9.934;2022-10-30T09:34:40;5.07;;;3.70;;
15449;SDS011;7826;49.784;9.934;2022-10-30T09:37:07;4.70;;;3.67;;
15449;SDS011;7826;49.784;9.934;2022-10-30T09:39:33;5.00;;;3.70;;
15449;SDS011;7826;49.784;9.934;2022-10-30T09:42:16;3.50;;;3.20;;
15449;SDS011;7826;49.784;9.934;2022-10-30T09:47:47;5.63;;;4.47;;
15449;SDS011;7826;49.784;9.934;2022-10-30T09:50:40;5.90;;;4.20;;
15449;SDS011;7826;49.784;9.934;2022-10-30T09:53:37;4.40;;;3.63;;
15449;SDS011;7826;49.784;9.934;2022-10-30T09:56:31;4.37;;;3.87;;
15449;SDS011;7826;49.784;9.934;2022-10-30T10:09:44;8.17;;;4.20;;
15449;SDS011;7826;49.784;9.934;2022-10-30T10:12:32;6.50;;;4.40;;
15449;SDS011;7826;49.784;9.934;2022-10-30T10:15:08;5.80;;;4.37;;
15449;SDS011;7826;49.784;9.934;2022-10-30T10:17:53;5.73;;;4.30;;
15449;SDS011;7826;49.784;9.934;2022-10-30T10:20:26;10.40;;;4.73;;
15449;SDS011;7826;49.784;9.934;2022-10-30T10:23:19;5.30;;;4.23;;
15449;SDS011;7826;49.784;9.934;2022-10-30T10:25:57;6.37;;;4.53;;
15449;SDS011;7826;49.784;9.934;2022-10-30T10:31:22;7.47;;;5.17;;
15449;SDS011;7826;49.784;9.934;2022-10-30T10:42:22;6.17;;;4.67;;
15449;SDS011;7826;49.784;9.934;2022-10-30T10:48:19;4.83;;;4.33;;
15449;SDS011;7826;49.784;9.934;2022-10-30T10:50:51;5.40;;;4.63;;
15449;SDS011;7826;49.784;9.934;2022-10-30T10:53:42;5.23;;;4.47;;
15449;SDS011;7826;49.784;9.934;2022-10-30T10:56:17;6.13;;;5.40;;
15449;SDS011;7826;49.784;9.934;2022-10-30T10:58:50;5.23;;;4.50;;
15449;SDS011;7826;49.784;9.934;2022-10-30T11:01:59;7.80;;;5.10;;
15449;SDS011;7826;49.784;9.934;2022-10-30T11:09:43;5.50;;;4.90;;
15449;SDS011;7826;49.784;9.934;2022-10-30T11:12:11;6.03;;;4.43;;
15449;SDS011;7826;49.784;9.934;2022-10-30T11:14:37;8.47;;;5.10;;
15449;SDS011;7826;49.784;9.934;2022-10-30T11:19:56;5.43;;;4.63;;
15449;SDS011;7826;49.784;9.934;2022-10-30T11:22:28;5.17;;;4.50;;
15449;SDS011;7826;49.784;9.934;2022-10-30T11:27:48;6.57;;;4.73;;
15449;SDS011;7826;49.784;9.934;2022-10-30T11:30:26;5.00;;;4.33;;
15449;SDS011;7826;49.784;9.934;2022-10-30T11:32:56;8.87;;;4.97;;
15449;SDS011;7826;49.784;9.934;2022-10-30T11:35:24;6.63;;;5.07;;
15449;SDS011;7826;49.784;9.934;2022-10-30T11:38:05;6.93;;;5.20;;
15449;SDS011;7826;49.784;9.934;2022-10-30T11:40:45;7.23;;;4.93;;
15449;SDS011;7826;49.784;9.934;2022-10-30T11:43:13;5.43;;;4.63;;
15449;SDS011;7826;49.784;9.934;2022-10-30T11:45:44;5.60;;;5.07;;
15449;SDS011;7826;49.784;9.934;2022-10-30T11:48:30;6.03;;;4.77;;
15449;SDS011;7826;49.784;9.934;2022-10-30T11:50:59;5.27;;;4.53;;
15449;SDS011;7826;49.784;9.934;2022-10-30T11:53:28;5.53;;;5.03;;
15449;SDS011;7826;49.784;9.934;2022-10-30T11:56:00;5.60;;;4.80;;
15449;SDS011;7826;49.784;9.934;2022-10-30T11:58:32;7.30;;;4.83;;
15449;SDS011;7826;49.784;9.934;2022-10-30T12:01:03;6.27;;;4.90;;
15449;SDS011;7826;49.784;9.934;2022-10-30T12:03:49;6.13;;;4.70;;
15449;SDS011;7826;49.784;9.934;2022-10-30T12:06:24;6.00;;;4.90;;
15449;SDS011;7826;49.784;9.934;2022-10-30T12:08:59;5.80;;;5.00;;
15449;SDS011;7826;49.784;9.934;2022-10-30T12:11:35;6.33;;;4.70;;
15449;SDS011;7826;49.784;9.934;2022-10-30T12:14:04;6.70;;;5.53;;
15449;SDS011;7826;49.784;9.934;2022-10-30T12:16:31;6.47;;;5.37;;
15449;SDS011;7826;49.784;9.934;2022-10-30T12:18:59;6.63;;;5.00;;
15449;SDS011;7826;49.784;9.934;2022-10-30T12:21:42;6.47;;;4.70;;
15449;SDS011;7826;49.784;9.934;2022-10-30T12:24:15;6.80;;;5.60;;
15449;SDS011;7826;49.784;9.934;2022-10-30T12:27:03;5.57;;;4.70;;
15449;SDS011;7826;49.784;9.934;2022-10-30T12:30:13;5.67;;;5.07;;
15449;SDS011;7826;49.784;9.934;2022-10-30T12:32:41;6.00;;;4.80;;
15449;SDS011;7826;49.784;9.934;2022-10-30T12:35:27;5.97;;;5.00;;
15449;SDS011;7826;49.784;9.934;2022-10-30T12:38:02;5.10;;;4.47;;
15449;SDS011;7826;49.784;9.934;2022-10-30T12:40:35;5.93;;;4.60;;
15449;SDS011;7826;49.784;9.934;2022-10-30T12:45:53;5.73;;;4.87;;
15449;SDS011;7826;49.784;9.934;2022-10-30T12:56:20;5.40;;;4.73;;
15449;SDS011;7826;49.784;9.934;2022-10-30T12:58:53;5.67;;;4.43;;
15449;SDS011;7826;49.784;9.934;2022-10-30T13:01:43;5.73;;;5.20;;
15449;SDS011;7826;49.784;9.934;2022-10-30T13:04:16;5.50;;;4.43;;
15449;SDS011;7826;49.784;9.934;2022-10-30T13:06:56;4.13;;;3.77;;
15449;SDS011;7826;49.784;9.934;2022-10-30T13:09:41;4.67;;;4.27;;
15449;SDS011;7826;49.784;9.934;2022-10-30T13:12:11;8.53;;;4.33;;
15449;SDS011;7826;49.784;9.934;2022-10-30T13:14:46;5.57;;;4.30;;
15449;SDS011;7826;49.784;9.934;2022-10-30T13:17:24;5.53;;;4.20;;
15449;SDS011;7826;49.784;9.934;2022-10-30T13:19:50;4.23;;;3.83;;
15449;SDS011;7826;49.784;9.934;2022-10-30T13:27:33;4.67;;;4.00;;
15449;SDS011;7826;49.784;9.934;2022-10-30T13:30:14;4.80;;;4.10;;
15449;SDS011;7826;49.784;9.934;2022-10-30T13:35:47;5.20;;;3.97;;
15449;SDS011;7826;49.784;9.934;2022-10-30T13:41:05;5.67;;;4.20;;
15449;SDS011;7826;49.784;9.934;2022-10-30T14:00:20;5.27;;;3.50;;
15449;SDS011;7826;49.784;9.934;2022-10-30T14:05:25;4.93;;;3.47;;
15449;SDS011;7826;49.784;9.934;2022-10-30T14:08:27;4.50;;;3.73;;
15449;SDS011;7826;49.784;9.934;2022-10-30T14:10:59;7.40;;;3.87;;
15449;SDS011;7826;49.784;9.934;2022-10-30T14:13:28;5.63;;;3.70;;
15449;SDS011;7826;49.784;9.934;2022-10-30T14:16:38;5.20;;;3.90;;
15449;SDS011;7826;49.784;9.934;2022-10-30T14:19:09;8.03;;;4.20;;
15449;SDS011;7826;49.784;9.934;2022-10-30T14:40:52;4.43;;;4.03;;
15449;SDS011;7826;49.784;9.934;2022-10-30T14:42:58;4.63;;;3.50;;
15449;SDS011;7826;49.784;9.934;2022-10-30T14:45:32;5.87;;;4.20;;
15449;SDS011;7826;49.784;9.934;2022-10-30T14:48:23;6.87;;;4.20;;
15449;SDS011;7826;49.784;9.934;2022-10-30T14:56:26;4.40;;;3.57;;
15449;SDS011;7826;49.784;9.934;2022-10-30T14:59:08;6.50;;;3.50;;
15449;SDS011;7826;49.784;9.934;2022-10-30T15:07:30;6.10;;;3.80;;
15449;SDS011;7826;49.784;9.934;2022-10-30T15:13:09;5.40;;;3.90;;
15449;SDS011;7826;49.784;9.934;2022-10-30T15:16:00;6.93;;;4.20;;
15449;SDS011;7826;49.784;9.934;2022-10-30T15:18:30;9.47;;;4.10;;
15449;SDS011;7826;49.784;9.934;2022-10-30T15:21:00;4.53;;;3.30;;
15449;SDS011;7826;49.784;9.934;2022-10-30T15:23:34;4.27;;;3.83;;
15449;SDS011;7826;49.784;9.934;2022-10-30T15:26:03;4.33;;;3.50;;
15449;SDS011;7826;49.784;9.934;2022-10-30T15:28:32;4.83;;;3.40;;
15449;SDS011;7826;49.784;9.934;2022-10-30T15:33:27;4.40;;;3.30;;
15449;SDS011;7826;49.784;9.934;2022-10-30T15:35:58;4.57;;;3.30;;
15449;SDS011;7826;49.784;9.934;2022-10-30T15:38:25;4.47;;;3.50;;
15449;SDS011;7826;49.784;9.934;2022-10-30T15:40:57;5.83;;;4.00;;
15449;SDS011;7826;49.784;9.934;2022-10-30T15:43:34;6.40;;;4.03;;
15449;SDS011;7826;49.784;9.934;2022-10-30T15:46:07;5.03;;;3.33;;
15449;SDS011;7826;49.784;9.934;2022-10-30T15:48:34;4.37;;;3.20;;
15449;SDS011;7826;49.784;9.934;2022-10-30T15:51:06;7.30;;;3.20;;
15449;SDS011;7826;49.784;9.934;2022-10-30T15:56:28;5.60;;;3.00;;
15449;SDS011;7826;49.784;9.934;2022-10-30T15:59:27;4.60;;;3.73;;
15449;SDS011;7826;49.784;9.934;2022-10-30T16:01:55;4.93;;;3.50;;
15449;SDS011;7826;49.784;9.934;2022-10-30T16:04:24;3.40;;;3.00;;
15449;SDS011;7826;49.784;9.934;2022-10-30T16:06:53;6.07;;;3.13;;
15449;SDS011;7826;49.784;9.934;2022-10-30T16:09:22;5.37;;;3.50;;
15449;SDS011;7826;49.784;9.934;2022-10-30T16:11:50;3.93;;;3.30;;
15449;SDS011;7826;49.784;9.934;2022-10-30T16:14:21;4.13;;;3.37;;
15449;SDS011;7826;49.784;9.934;2022-10-30T16:16:53;4.07;;;2.80;;
15449;SDS011;7826;49.784;9.934;2022-10-30T16:19:27;6.47;;;3.53;;
15449;SDS011;7826;49.784;9.934;2022-10-30T16:21:56;4.30;;;3.20;;
15449;SDS011;7826;49.784;9.934;2022-10-30T16:24:29;4.00;;;3.03;;
15449;SDS011;7826;49.784;9.934;2022-10-30T16:27:05;3.60;;;3.00;;
15449;SDS011;7826;49.784;9.934;2022-10-30T16:29:32;5.53;;;3.33;;
15449;SDS011;7826;49.784;9.934;2022-10-30T16:32:00;3.87;;;3.10;;
15449;SDS011;7826;49.784;9.934;2022-10-30T16:34:29;2.80;;;2.60;;
15449;SDS011;7826;49.784;9.934;2022-10-30T16:37:00;5.00;;;3.10;;
15449;SDS011;7826;49.784;9.934;2022-10-30T16:39:31;5.00;;;3.47;;
15449;SDS011;7826;49.784;9.934;2022-10-30T16:41:59;4.43;;;3.07;;
15449;SDS011;7826;49.784;9.934;2022-10-30T16:49:47;5.03;;;2.77;;
15449;SDS011;7826;49.784;9.934;2022-10-30T16:52:26;5.30;;;3.17;;
15449;SDS011;7826;49.784;9.934;2022-10-30T16:55:01;6.50;;;2.83;;
15449;SDS011;7826;49.784;9.934;2022-10-30T16:57:32;4.03;;;3.27;;
15449;SDS011;7826;49.784;9.934;2022-10-30T17:00:02;6.73;;;3.03;;
15449;SDS011;7826;49.784;9.934;2022-10-30T17:02:31;4.57;;;3.10;;
15449;SDS011;7826;49.784;9.934;2022-10-30T17:05:10;5.77;;;3.40;;
15449;SDS011;7826;49.784;9.934;2022-10-30T17:08:23;2.80;;;2.60;;
15449;SDS011;7826;49.784;9.934;2022-10-30T17:15:59;5.10;;;3.23;;
15449;SDS011;7826;49.784;9.934;2022-10-30T17:18:47;6.23;;;3.03;;
15449;SDS011;7826;49.784;9.934;2022-10-30T17:24:14;4.17;;;3.30;;
15449;SDS011;7826;49.784;9.934;2022-10-30T17:27:04;5.33;;;3.10;;
15449;SDS011;7826;49.784;9.934;2022-10-30T17:32:04;4.37;;;3.40;;
15449;SDS011;7826;49.784;9.934;2022-10-30T17:34:56;5.50;;;3.20;;
15449;SDS011;7826;49.784;9.934;2022-10-30T17:37:26;5.43;;;3.30;;
15449;SDS011;7826;49.784;9.934;2022-10-30T17:39:54;3.10;;;2.80;;
15449;SDS011;7826;49.784;9.934;2022-10-30T17:42:20;3.77;;;3.30;;
15449;SDS011;7826;49.784;9.934;2022-10-30T17:44:46;5.27;;;3.27;;
15449;SDS011;7826;49.784;9.934;2022-10-30T17:47:15;7.20;;;3.37;;
15449;SDS011;7826;49.784;9.934;2022-10-30T17:49:43;5.83;;;3.40;;
15449;SDS011;7826;49.784;9.934;2022-10-30T17:52:11;5.30;;;3.53;;
15449;SDS011;7826;49.784;9.934;2022-10-30T17:54:40;5.30;;;3.47;;
15449;SDS011;7826;49.784;9.934;2022-10-30T17:57:08;5.70;;;3.53;;
15449;SDS011;7826;49.784;9.934;2022-10-30T17:59:36;3.57;;;2.90;;